createdAt,value
2023-01-29T00:00:30.071Z,7.67
2023-01-29T00:03:01.058Z,6.43
2023-01-29T00:05:30.346Z,6.90
2023-01-29T00:07:59.473Z,7.30
2023-01-29T00:10:33.849Z,7.70
2023-01-29T00:13:02.287Z,6.63
2023-01-29T00:15:30.936Z,6.90
2023-01-29T00:18:02.315Z,7.43
2023-01-29T00:20:30.372Z,7.70
2023-01-29T00:22:59.708Z,7.63
2023-01-29T00:25:32.903Z,6.87
2023-01-29T00:28:01.970Z,7.23
2023-01-29T00:30:34.415Z,7.90
2023-01-29T00:33:02.281Z,7.20
2023-01-29T00:35:31.577Z,7.50
2023-01-29T00:37:59.940Z,7.03
2023-01-29T00:40:49.389Z,6.97
2023-01-29T00:43:36.778Z,7.37
2023-01-29T00:46:06.507Z,7.97
2023-01-29T00:48:35.788Z,8.00
2023-01-29T00:51:04.856Z,8.20
2023-01-29T00:53:33.574Z,8.67
2023-01-29T00:56:03.313Z,8.33
2023-01-29T00:58:34.525Z,8.37
2023-01-29T01:01:03.581Z,8.97
2023-01-29T01:03:35.354Z,8.90
2023-01-29T01:06:07.945Z,9.07
2023-01-29T01:08:53.977Z,9.27
2023-01-29T01:11:25.715Z,9.23
2023-01-29T01:13:55.268Z,9.90
2023-01-29T01:16:27.637Z,9.50
2023-01-29T01:18:56.755Z,10.10
2023-01-29T01:21:25.611Z,10.57
2023-01-29T01:23:53.682Z,10.53
2023-01-29T01:26:21.825Z,10.43
2023-01-29T01:28:51.961Z,10.63
2023-01-29T01:31:22.220Z,10.50
2023-01-29T01:33:51.753Z,11.57
2023-01-29T01:36:23.184Z,9.97
2023-01-29T01:38:51.115Z,11.17
2023-01-29T01:41:23.155Z,10.47
2023-01-29T01:43:54.681Z,10.90
2023-01-29T01:46:23.965Z,10.73
2023-01-29T01:48:54.495Z,10.40
2023-01-29T01:51:23.608Z,11.07
2023-01-29T01:53:53.985Z,11.63
2023-01-29T01:56:26.070Z,10.97
2023-01-29T01:58:58.983Z,11.67
2023-01-29T02:01:29.042Z,10.80
2023-01-29T02:04:19.215Z,11.53
2023-01-29T02:07:05.386Z,12.33
2023-01-29T02:09:37.361Z,11.33
2023-01-29T02:12:08.704Z,12.03
2023-01-29T02:14:41.308Z,12.13
2023-01-29T02:17:12.713Z,10.60
2023-01-29T02:19:48.574Z,11.83
2023-01-29T02:22:43.665Z,12.33
2023-01-29T02:25:29.441Z,12.27
2023-01-29T02:28:08.550Z,12.13
2023-01-29T02:30:41.528Z,11.90
2023-01-29T02:33:15.871Z,11.73
2023-01-29T02:35:46.493Z,12.27
2023-01-29T02:38:21.277Z,11.67
2023-01-29T02:40:54.360Z,12.23
2023-01-29T02:43:29.810Z,12.57
2023-01-29T02:46:04.943Z,12.87
2023-01-29T02:48:43.079Z,11.63
2023-01-29T02:51:18.437Z,10.97
2023-01-29T02:53:53.824Z,11.33
2023-01-29T02:56:28.467Z,11.37
2023-01-29T02:59:01.338Z,11.10
2023-01-29T03:01:33.045Z,11.33
2023-01-29T03:04:07.504Z,10.87
2023-01-29T03:06:40.126Z,12.13
2023-01-29T03:09:12.599Z,11.53
2023-01-29T03:11:44.174Z,12.00
2023-01-29T03:14:18.078Z,11.87
2023-01-29T03:16:52.755Z,11.93
2023-01-29T03:19:27.643Z,12.67
2023-01-29T03:22:00.210Z,12.17
2023-01-29T03:24:54.400Z,13.03
2023-01-29T03:27:45.657Z,12.10
2023-01-29T03:30:35.675Z,12.47
2023-01-29T03:33:36.683Z,12.60
2023-01-29T03:36:08.935Z,12.90
2023-01-29T03:38:38.144Z,12.77
2023-01-29T03:41:10.458Z,11.53
2023-01-29T03:43:42.682Z,12.57
2023-01-29T03:46:20.027Z,11.60
2023-01-29T03:48:58.388Z,12.27
2023-01-29T03:51:31.072Z,12.60
2023-01-29T03:54:06.106Z,12.70
2023-01-29T03:56:41.100Z,13.07
2023-01-29T03:59:18.471Z,13.30
2023-01-29T04:02:31.851Z,12.93
2023-01-29T04:05:08.127Z,11.70
2023-01-29T04:07:46.027Z,11.83
2023-01-29T04:10:18.654Z,13.13
2023-01-29T04:12:51.078Z,12.20
2023-01-29T04:15:24.396Z,11.73
2023-01-29T04:18:01.127Z,13.37
2023-01-29T04:20:44.294Z,12.07
2023-01-29T04:23:22.000Z,12.63
2023-01-29T04:26:00.047Z,12.83
2023-01-29T04:28:41.813Z,13.20
2023-01-29T04:31:13.729Z,12.47
2023-01-29T04:33:46.676Z,12.70
2023-01-29T04:36:27.565Z,13.00
2023-01-29T04:39:05.416Z,13.10
2023-01-29T04:41:37.495Z,13.10
2023-01-29T04:44:12.174Z,12.77
2023-01-29T04:46:49.945Z,13.27
2023-01-29T04:49:29.189Z,12.90
2023-01-29T04:52:01.847Z,13.03
2023-01-29T04:54:39.356Z,13.33
2023-01-29T04:57:11.685Z,13.33
2023-01-29T04:59:46.006Z,14.07
2023-01-29T05:02:15.481Z,13.80
2023-01-29T05:04:48.297Z,15.23
2023-01-29T05:07:22.101Z,14.87
2023-01-29T05:09:51.854Z,14.10
2023-01-29T05:12:20.516Z,15.30
2023-01-29T05:14:49.420Z,14.00
2023-01-29T05:17:19.692Z,15.13
2023-01-29T05:19:49.627Z,16.07
2023-01-29T05:22:22.751Z,15.80
2023-01-29T05:24:52.201Z,15.63
2023-01-29T05:27:41.270Z,15.93
2023-01-29T05:30:11.674Z,16.73
2023-01-29T05:32:44.490Z,16.77
2023-01-29T05:35:15.146Z,17.20
2023-01-29T05:37:43.208Z,17.27
2023-01-29T05:40:12.770Z,17.90
2023-01-29T05:42:40.824Z,17.30
2023-01-29T05:45:11.376Z,18.23
2023-01-29T05:47:39.830Z,18.17
2023-01-29T05:50:10.157Z,18.27
2023-01-29T05:52:41.212Z,17.50
2023-01-29T05:55:11.071Z,18.77
2023-01-29T05:57:40.560Z,17.60
2023-01-29T06:00:10.718Z,17.20
2023-01-29T06:02:41.847Z,18.10
2023-01-29T06:05:11.879Z,17.30
2023-01-29T06:07:45.541Z,17.37
2023-01-29T06:10:15.742Z,18.43
2023-01-29T06:12:45.841Z,17.53
2023-01-29T06:15:15.444Z,17.57
2023-01-29T06:17:45.504Z,18.50
2023-01-29T06:20:15.900Z,18.37
2023-01-29T06:22:45.764Z,18.00
2023-01-29T06:25:14.725Z,17.40
2023-01-29T06:27:43.652Z,17.97
2023-01-29T06:30:12.811Z,19.20
2023-01-29T06:32:41.200Z,18.67
2023-01-29T06:35:11.425Z,17.43
2023-01-29T06:37:39.526Z,19.03
2023-01-29T06:40:13.129Z,18.77
2023-01-29T06:42:41.646Z,17.93
2023-01-29T06:45:11.873Z,19.37
2023-01-29T06:47:41.453Z,19.30
2023-01-29T06:50:10.980Z,19.50
2023-01-29T06:52:40.360Z,18.03
2023-01-29T06:55:11.174Z,20.37
2023-01-29T06:57:40.660Z,17.73
2023-01-29T07:00:13.445Z,19.47
2023-01-29T07:02:41.883Z,19.60
2023-01-29T07:05:11.595Z,19.90
2023-01-29T07:07:39.756Z,19.87
2023-01-29T07:10:13.627Z,19.80
2023-01-29T07:12:42.320Z,18.63
2023-01-29T07:15:13.042Z,18.83
2023-01-29T07:17:42.384Z,19.57
2023-01-29T07:20:13.207Z,20.83
2023-01-29T07:22:41.245Z,19.87
2023-01-29T07:25:12.832Z,21.17
2023-01-29T07:27:40.839Z,20.83
2023-01-29T07:30:12.635Z,20.00
2023-01-29T07:32:40.731Z,20.93
2023-01-29T07:35:11.654Z,18.33
2023-01-29T07:37:40.755Z,20.20
2023-01-29T07:40:15.658Z,20.03
2023-01-29T07:42:44.559Z,20.17
2023-01-29T07:45:13.350Z,20.27
2023-01-29T07:47:41.813Z,19.80
2023-01-29T07:50:10.953Z,19.93
2023-01-29T07:52:39.034Z,19.40
2023-01-29T07:55:08.558Z,21.03
2023-01-29T07:57:38.269Z,19.67
2023-01-29T08:00:08.435Z,21.40
2023-01-29T08:02:40.579Z,20.23
2023-01-29T08:05:09.771Z,21.30
2023-01-29T08:07:38.633Z,19.03
2023-01-29T08:10:07.750Z,19.13
2023-01-29T08:12:37.165Z,20.43
2023-01-29T08:15:07.732Z,21.07
2023-01-29T08:17:52.492Z,20.50
2023-01-29T08:20:26.365Z,22.57
2023-01-29T08:23:00.803Z,22.10
2023-01-29T08:25:31.123Z,21.00
2023-01-29T08:28:00.848Z,20.50
2023-01-29T08:30:31.042Z,21.50
2023-01-29T08:33:03.318Z,21.63
2023-01-29T08:35:32.320Z,23.13
2023-01-29T08:38:03.384Z,22.57
2023-01-29T08:40:33.105Z,23.13
2023-01-29T08:43:06.131Z,21.37
2023-01-29T08:45:37.779Z,21.50
2023-01-29T08:48:06.899Z,19.00
2023-01-29T08:50:35.554Z,21.63
2023-01-29T08:53:08.568Z,21.13
2023-01-29T08:55:38.330Z,20.67
2023-01-29T08:58:08.798Z,22.97
2023-01-29T09:00:36.998Z,20.23
2023-01-29T09:03:07.689Z,19.57
2023-01-29T09:05:37.020Z,20.27
2023-01-29T09:08:05.709Z,20.43
2023-01-29T09:10:34.086Z,21.13
2023-01-29T09:13:05.177Z,20.90
2023-01-29T09:15:34.840Z,21.07
2023-01-29T09:18:05.943Z,21.50
2023-01-29T09:20:35.297Z,21.30
2023-01-29T09:23:06.549Z,19.63
2023-01-29T09:25:34.666Z,21.73
2023-01-29T09:28:06.213Z,20.63
2023-01-29T09:30:38.020Z,20.83
2023-01-29T09:33:07.376Z,20.23
2023-01-29T09:35:35.929Z,19.60
2023-01-29T09:38:04.318Z,20.20
2023-01-29T09:40:37.106Z,23.40
2023-01-29T09:43:08.467Z,19.43
2023-01-29T09:45:40.479Z,20.20
2023-01-29T09:48:14.825Z,19.63
2023-01-29T09:50:45.721Z,18.37
2023-01-29T09:53:19.825Z,19.23
2023-01-29T09:55:53.267Z,19.33
2023-01-29T09:58:28.386Z,19.20
2023-01-29T10:01:11.436Z,19.53
2023-01-29T10:03:56.406Z,16.13
2023-01-29T10:06:33.416Z,19.90
2023-01-29T10:09:16.106Z,18.90
2023-01-29T10:11:48.060Z,18.50
2023-01-29T10:14:24.192Z,18.30
2023-01-29T10:17:04.222Z,17.30
2023-01-29T10:19:52.317Z,15.17
2023-01-29T10:22:42.429Z,16.47
2023-01-29T10:25:14.822Z,16.70
2023-01-29T10:27:48.836Z,17.13
2023-01-29T10:30:25.571Z,15.87
2023-01-29T10:32:56.075Z,14.87
2023-01-29T10:35:26.847Z,14.93
2023-01-29T10:37:56.115Z,14.97
2023-01-29T10:40:34.726Z,15.03
2023-01-29T10:43:07.525Z,15.30
2023-01-29T10:45:43.432Z,13.83
2023-01-29T10:48:35.925Z,14.60
2023-01-29T10:51:14.776Z,13.67
2023-01-29T10:53:54.984Z,14.60
2023-01-29T10:56:37.203Z,14.60
2023-01-29T10:59:08.271Z,13.93
2023-01-29T11:01:37.400Z,14.50
2023-01-29T11:04:08.876Z,13.47
2023-01-29T11:06:38.203Z,17.87
2023-01-29T11:09:10.073Z,13.43
2023-01-29T11:11:42.268Z,14.60
2023-01-29T11:14:13.992Z,14.40
2023-01-29T11:16:43.467Z,13.97
2023-01-29T11:19:12.872Z,14.20
2023-01-29T11:21:54.477Z,13.67
2023-01-29T11:24:23.434Z,13.73
2023-01-29T11:26:52.056Z,12.63
2023-01-29T11:29:36.094Z,13.23
2023-01-29T11:32:06.829Z,12.63
2023-01-29T11:34:36.579Z,13.57
2023-01-29T11:37:06.986Z,11.80
2023-01-29T11:39:35.524Z,12.10
2023-01-29T11:42:05.359Z,12.40
2023-01-29T11:44:37.500Z,12.67
2023-01-29T11:47:20.694Z,12.83
2023-01-29T11:49:54.252Z,14.07
2023-01-29T11:52:26.132Z,13.00
2023-01-29T11:54:58.324Z,13.03
2023-01-29T11:57:30.843Z,12.27
2023-01-29T12:00:01.463Z,11.87
2023-01-29T12:02:38.782Z,10.40
2023-01-29T12:05:19.262Z,12.47
2023-01-29T12:07:49.735Z,11.70
2023-01-29T12:10:35.440Z,11.73
2023-01-29T12:13:08.357Z,10.47
2023-01-29T12:15:37.860Z,10.83
2023-01-29T12:18:13.610Z,10.93
2023-01-29T12:20:46.596Z,12.20
2023-01-29T12:23:26.707Z,11.27
2023-01-29T12:26:01.650Z,11.43
2023-01-29T12:28:40.374Z,11.03
2023-01-29T12:31:25.461Z,11.53
2023-01-29T12:33:57.111Z,10.93
2023-01-29T12:36:30.208Z,11.67
2023-01-29T12:38:59.063Z,11.13
2023-01-29T12:41:35.029Z,15.57
2023-01-29T12:44:08.576Z,14.50
2023-01-29T12:46:41.121Z,11.77
2023-01-29T12:49:14.564Z,11.43
2023-01-29T12:51:52.478Z,11.53
2023-01-29T12:54:27.093Z,11.40
2023-01-29T12:56:59.868Z,12.03
2023-01-29T12:59:31.087Z,11.70
2023-01-29T13:02:02.030Z,13.27
2023-01-29T13:04:40.861Z,10.43
2023-01-29T13:07:14.291Z,12.23
2023-01-29T13:09:47.537Z,11.93
2023-01-29T13:12:20.315Z,14.07
2023-01-29T13:14:53.091Z,13.60
2023-01-29T13:17:26.585Z,11.90
2023-01-29T13:20:00.537Z,21.90
2023-01-29T13:22:33.265Z,12.50
2023-01-29T13:25:05.396Z,13.67
2023-01-29T13:27:36.030Z,20.00
2023-01-29T13:30:07.777Z,15.63
2023-01-29T13:32:41.100Z,13.87
2023-01-29T13:35:18.421Z,12.73
2023-01-29T13:37:51.628Z,13.13
2023-01-29T13:40:25.478Z,11.93
2023-01-29T13:42:54.482Z,15.50
2023-01-29T13:45:26.717Z,11.70
2023-01-29T13:47:55.816Z,11.87
2023-01-29T13:50:37.079Z,12.20
2023-01-29T13:53:11.964Z,11.40
2023-01-29T13:55:42.671Z,13.30
2023-01-29T13:58:15.659Z,11.93
2023-01-29T14:00:53.019Z,13.47
2023-01-29T14:04:03.325Z,14.20
2023-01-29T14:06:49.651Z,13.87
2023-01-29T14:09:51.289Z,12.93
2023-01-29T14:12:45.833Z,11.77
2023-01-29T14:15:23.107Z,11.93
2023-01-29T14:18:05.677Z,11.60
2023-01-29T14:20:47.055Z,12.80
2023-01-29T14:23:44.461Z,13.53
2023-01-29T14:26:24.064Z,14.90
2023-01-29T14:29:00.046Z,15.53
2023-01-29T14:31:45.162Z,14.87
2023-01-29T14:34:20.463Z,16.27
2023-01-29T14:36:55.264Z,16.30
2023-01-29T14:39:36.122Z,15.20
2023-01-29T14:42:17.165Z,14.80
2023-01-29T14:45:06.978Z,15.20
2023-01-29T14:48:02.435Z,15.70
2023-01-29T14:50:50.825Z,17.00
2023-01-29T14:53:26.637Z,15.83
2023-01-29T14:55:59.052Z,16.57
2023-01-29T14:58:38.937Z,16.23
2023-01-29T15:01:18.186Z,14.53
2023-01-29T15:03:49.926Z,16.87
2023-01-29T15:06:22.265Z,16.80
2023-01-29T15:08:56.438Z,18.03
2023-01-29T15:11:37.501Z,18.13
2023-01-29T15:14:16.851Z,17.60
2023-01-29T15:16:53.737Z,17.37
2023-01-29T15:19:26.269Z,16.37
2023-01-29T15:22:06.878Z,17.80
2023-01-29T15:24:35.227Z,16.30
2023-01-29T15:27:07.183Z,17.03
2023-01-29T15:29:37.884Z,17.00
2023-01-29T15:32:08.028Z,17.13
2023-01-29T15:34:37.628Z,15.40
2023-01-29T15:37:09.806Z,17.43
2023-01-29T15:39:44.240Z,17.60
2023-01-29T15:42:23.452Z,19.50
2023-01-29T15:44:55.572Z,17.40
2023-01-29T15:47:27.936Z,16.70
2023-01-29T15:49:57.556Z,17.30
2023-01-29T15:52:30.293Z,18.10
2023-01-29T15:55:07.744Z,15.77
2023-01-29T15:57:40.491Z,16.03
2023-01-29T16:00:23.914Z,15.97
2023-01-29T16:02:53.548Z,16.10
2023-01-29T16:05:25.236Z,23.57
2023-01-29T16:07:56.112Z,15.30
2023-01-29T16:10:25.926Z,16.67
2023-01-29T16:12:55.124Z,15.60
2023-01-29T16:15:33.959Z,15.23
2023-01-29T16:18:05.749Z,15.43
2023-01-29T16:20:42.521Z,16.07
2023-01-29T16:23:20.896Z,18.20
2023-01-29T16:25:52.164Z,16.33
2023-01-29T16:28:20.662Z,18.47
2023-01-29T16:30:56.466Z,14.37
2023-01-29T16:33:29.734Z,17.37
2023-01-29T16:35:58.181Z,16.73
2023-01-29T16:38:29.758Z,15.73
2023-01-29T16:41:10.088Z,15.97
2023-01-29T16:43:51.620Z,17.20
2023-01-29T16:46:32.950Z,17.10
2023-01-29T16:49:02.287Z,15.80
2023-01-29T16:51:31.268Z,16.47
2023-01-29T16:54:03.294Z,16.53
2023-01-29T16:56:34.404Z,16.27
2023-01-29T16:59:04.550Z,15.57
2023-01-29T17:01:35.912Z,17.13
2023-01-29T17:04:11.887Z,16.80
2023-01-29T17:06:41.468Z,16.30
2023-01-29T17:09:09.964Z,16.07
2023-01-29T17:11:38.976Z,14.73
2023-01-29T17:14:08.629Z,16.50
2023-01-29T17:16:50.372Z,17.70
2023-01-29T17:19:21.945Z,16.13
2023-01-29T17:21:49.913Z,17.40
2023-01-29T17:24:18.172Z,16.53
2023-01-29T17:26:49.358Z,17.43
2023-01-29T17:29:21.725Z,17.67
2023-01-29T17:31:51.746Z,16.07
2023-01-29T17:34:20.085Z,15.97
2023-01-29T17:36:49.302Z,15.03
2023-01-29T17:39:19.766Z,15.30
2023-01-29T17:41:50.838Z,18.63
2023-01-29T17:44:19.455Z,23.03
2023-01-29T17:46:47.693Z,69.80
2023-01-29T17:49:24.035Z,27.17
2023-01-29T17:51:53.129Z,16.30
2023-01-29T17:54:21.878Z,16.83
2023-01-29T17:56:53.197Z,16.40
2023-01-29T17:59:23.318Z,16.93
2023-01-29T18:01:53.509Z,20.43
2023-01-29T18:04:23.214Z,26.67
2023-01-29T18:06:53.415Z,17.67
2023-01-29T18:09:24.640Z,36.73
2023-01-29T18:11:53.606Z,16.43
2023-01-29T18:14:22.055Z,15.00
2023-01-29T18:16:50.442Z,15.07
2023-01-29T18:19:28.127Z,18.33
2023-01-29T18:21:56.500Z,14.40
2023-01-29T18:24:26.565Z,15.73
2023-01-29T18:26:57.277Z,15.90
2023-01-29T18:29:29.955Z,15.67
2023-01-29T18:31:58.423Z,18.07
2023-01-29T18:34:29.820Z,15.33
2023-01-29T18:37:00.952Z,12.77
2023-01-29T18:39:29.689Z,15.03
2023-01-29T18:41:57.820Z,15.30
2023-01-29T18:44:25.758Z,13.83
2023-01-29T18:46:53.937Z,13.37
2023-01-29T18:49:22.246Z,13.53
2023-01-29T18:51:51.965Z,15.00
2023-01-29T18:54:21.626Z,13.37
2023-01-29T18:57:06.213Z,12.30
2023-01-29T18:59:41.247Z,13.80
2023-01-29T19:02:11.835Z,13.67
2023-01-29T19:04:40.110Z,13.03
2023-01-29T19:07:11.414Z,12.50
2023-01-29T19:09:40.392Z,12.87
2023-01-29T19:12:10.253Z,11.83
2023-01-29T19:14:38.888Z,11.20
2023-01-29T19:17:07.262Z,12.60
2023-01-29T19:19:35.637Z,12.97
2023-01-29T19:22:03.609Z,10.97
2023-01-29T19:24:39.026Z,11.47
2023-01-29T19:27:08.850Z,12.33
2023-01-29T19:29:38.008Z,14.30
2023-01-29T19:32:06.308Z,14.53
2023-01-29T19:34:34.622Z,13.00
2023-01-29T19:37:04.020Z,11.20
2023-01-29T19:39:34.074Z,13.50
2023-01-29T19:42:02.810Z,12.83
2023-01-29T19:44:30.877Z,19.00
2023-01-29T19:47:01.217Z,14.73
2023-01-29T19:49:30.606Z,12.13
2023-01-29T19:51:59.199Z,13.03
2023-01-29T19:54:29.457Z,13.73
2023-01-29T19:56:59.661Z,11.10
2023-01-29T19:59:28.450Z,15.80
2023-01-29T20:01:56.938Z,11.97
2023-01-29T20:04:27.504Z,10.27
2023-01-29T20:06:56.953Z,9.33
2023-01-29T20:09:25.338Z,9.13
2023-01-29T20:11:54.078Z,9.87
2023-01-29T20:14:24.010Z,9.23
2023-01-29T20:16:54.681Z,11.53
2023-01-29T20:19:27.172Z,12.03
2023-01-29T20:21:55.111Z,11.80
2023-01-29T20:24:24.735Z,8.13
2023-01-29T20:26:52.997Z,10.17
2023-01-29T20:29:21.435Z,11.10
2023-01-29T20:31:51.206Z,10.10
2023-01-29T20:34:19.510Z,10.27
2023-01-29T20:36:47.750Z,10.00
2023-01-29T20:39:16.075Z,10.40
2023-01-29T20:41:44.640Z,10.33
2023-01-29T20:44:12.992Z,11.20
2023-01-29T20:46:42.388Z,9.20
2023-01-29T20:49:12.296Z,9.27
2023-01-29T20:51:43.210Z,9.63
2023-01-29T20:54:15.286Z,12.23
2023-01-29T20:56:46.673Z,9.57
2023-01-29T20:59:17.993Z,8.97
2023-01-29T21:01:49.156Z,9.83
2023-01-29T21:04:18.665Z,10.70
2023-01-29T21:06:49.976Z,9.83
2023-01-29T21:09:18.310Z,9.23
2023-01-29T21:11:47.293Z,9.13
2023-01-29T21:14:15.466Z,10.07
2023-01-29T21:16:43.616Z,8.03
2023-01-29T21:19:15.998Z,9.53
2023-01-29T21:21:45.462Z,9.43
2023-01-29T21:24:15.103Z,10.23
2023-01-29T21:26:43.168Z,9.53
2023-01-29T21:29:12.081Z,9.83
2023-01-29T21:31:41.664Z,10.23
2023-01-29T21:34:13.077Z,8.70
2023-01-29T21:36:44.460Z,9.67
2023-01-29T21:39:20.999Z,8.47
2023-01-29T21:42:14.279Z,9.73
2023-01-29T21:44:45.794Z,28.93
2023-01-29T21:47:14.767Z,9.10
2023-01-29T21:49:45.071Z,9.00
2023-01-29T21:52:14.931Z,9.07
2023-01-29T21:54:48.975Z,9.93
2023-01-29T21:57:17.839Z,10.17
2023-01-29T21:59:47.733Z,9.50
2023-01-29T22:02:21.155Z,10.20
2023-01-29T22:04:50.474Z,10.37
2023-01-29T22:07:18.387Z,10.23
2023-01-29T22:09:48.290Z,10.70
2023-01-29T22:12:16.699Z,10.00
2023-01-29T22:14:46.164Z,9.07
2023-01-29T22:17:14.761Z,10.33
2023-01-29T22:19:43.063Z,9.50
2023-01-29T22:22:14.495Z,8.73
2023-01-29T22:24:44.684Z,10.07
2023-01-29T22:27:14.422Z,8.73
2023-01-29T22:29:42.606Z,9.30
2023-01-29T22:32:11.564Z,8.70
2023-01-29T22:34:39.708Z,8.87
2023-01-29T22:37:08.277Z,9.67
2023-01-29T22:39:36.504Z,10.13
2023-01-29T22:42:05.151Z,9.27
2023-01-29T22:44:34.498Z,10.43
2023-01-29T22:47:02.687Z,9.83
2023-01-29T22:49:31.528Z,9.93
2023-01-29T22:52:16.067Z,9.10
2023-01-29T22:54:45.479Z,10.13
2023-01-29T22:57:15.131Z,10.13
2023-01-29T22:59:46.757Z,11.97
2023-01-29T23:02:15.221Z,10.90
2023-01-29T23:04:44.284Z,12.13
2023-01-29T23:07:14.777Z,10.63
2023-01-29T23:09:42.855Z,10.83
2023-01-29T23:12:10.829Z,11.10
2023-01-29T23:14:39.466Z,14.30
2023-01-29T23:17:09.161Z,10.23
2023-01-29T23:19:37.922Z,9.33
2023-01-29T23:22:06.072Z,10.80
2023-01-29T23:24:34.453Z,10.53
2023-01-29T23:27:17.509Z,8.43
2023-01-29T23:29:47.824Z,11.03
2023-01-29T23:32:21.314Z,18.17
2023-01-29T23:34:50.563Z,9.73
2023-01-29T23:37:18.901Z,14.37
2023-01-29T23:39:47.144Z,13.13
2023-01-29T23:42:15.137Z,8.53
2023-01-29T23:44:43.348Z,10.37
2023-01-29T23:47:14.152Z,15.50
2023-01-29T23:49:43.981Z,10.33
2023-01-29T23:52:12.276Z,9.83
2023-01-29T23:54:40.379Z,8.83
2023-01-29T23:57:08.602Z,9.50
2023-01-29T23:59:36.801Z,9.33
